sensor_id;sensor_type;location;lat;lon;timestamp;temperature;humidity
17571;DHT22;8903;52.220;20.978;2022-09-27T00:01:54;12.30;99.90
17571;DHT22;8903;52.220;20.978;2022-09-27T00:04:22;12.30;99.90
17571;DHT22;8903;52.220;20.978;2022-09-27T00:06:50;12.30;99.90
17571;DHT22;8903;52.220;20.978;2022-09-27T00:09:17;12.30;99.90
17571;DHT22;8903;52.220;20.978;2022-09-27T00:11:44;12.30;99.90
17571;DHT22;8903;52.220;20.978;2022-09-27T00:14:13;12.30;99.90
17571;DHT22;8903;52.220;20.978;2022-09-27T00:16:41;12.30;99.90
17571;DHT22;8903;52.220;20.978;2022-09-27T00:19:11;12.30;99.90
17571;DHT22;8903;52.220;20.978;2022-09-27T00:21:40;12.30;99.90
17571;DHT22;8903;52.220;20.978;2022-09-27T00:24:11;12.30;99.90
17571;DHT22;8903;52.220;20.978;2022-09-27T00:26:38;12.30;99.90
17571;DHT22;8903;52.220;20.978;2022-09-27T00:29:05;12.30;99.90
17571;DHT22;8903;52.220;20.978;2022-09-27T00:31:32;12.30;99.90
17571;DHT22;8903;52.220;20.978;2022-09-27T00:34:00;12.30;99.90
17571;DHT22;8903;52.220;20.978;2022-09-27T00:36:28;12.30;99.90
17571;DHT22;8903;52.220;20.978;2022-09-27T00:38:57;12.30;99.90
17571;DHT22;8903;52.220;20.978;2022-09-27T00:41:26;12.30;99.90
17571;DHT22;8903;52.220;20.978;2022-09-27T00:43:54;12.30;99.90
17571;DHT22;8903;52.220;20.978;2022-09-27T00:46:25;12.30;99.90
17571;DHT22;8903;52.220;20.978;2022-09-27T00:49:02;12.30;99.90
17571;DHT22;8903;52.220;20.978;2022-09-27T00:51:32;12.30;99.90
17571;DHT22;8903;52.220;20.978;2022-09-27T00:54:02;12.30;99.90
17571;DHT22;8903;52.220;20.978;2022-09-27T00:56:30;12.30;99.90
17571;DHT22;8903;52.220;20.978;2022-09-27T00:59:02;12.30;99.90
17571;DHT22;8903;52.220;20.978;2022-09-27T01:01:33;12.30;99.90
17571;DHT22;8903;52.220;20.978;2022-09-27T01:04:04;12.30;99.90
17571;DHT22;8903;52.220;20.978;2022-09-27T01:06:32;12.30;99.90
17571;DHT22;8903;52.220;20.978;2022-09-27T01:08:59;12.30;99.90
17571;DHT22;8903;52.220;20.978;2022-09-27T01:11:39;12.40;99.90
17571;DHT22;8903;52.220;20.978;2022-09-27T01:14:19;12.40;99.90
17571;DHT22;8903;52.220;20.978;2022-09-27T01:16:56;12.30;99.90
17571;DHT22;8903;52.220;20.978;2022-09-27T01:19:45;12.30;99.90
17571;DHT22;8903;52.220;20.978;2022-09-27T01:22:14;12.40;99.90
17571;DHT22;8903;52.220;20.978;2022-09-27T01:24:54;12.40;99.90
17571;DHT22;8903;52.220;20.978;2022-09-27T01:27:48;12.40;99.90
17571;DHT22;8903;52.220;20.978;2022-09-27T01:30:20;12.40;99.90
17571;DHT22;8903;52.220;20.978;2022-09-27T01:32:58;12.40;99.90
17571;DHT22;8903;52.220;20.978;2022-09-27T01:35:35;12.40;99.90
17571;DHT22;8903;52.220;20.978;2022-09-27T01:38:12;12.40;99.90
17571;DHT22;8903;52.220;20.978;2022-09-27T01:40:48;12.40;99.90
17571;DHT22;8903;52.220;20.978;2022-09-27T01:43:53;12.40;99.90
17571;DHT22;8903;52.220;20.978;2022-09-27T01:46:31;12.40;99.90
17571;DHT22;8903;52.220;20.978;2022-09-27T01:49:27;12.40;99.90
17571;DHT22;8903;52.220;20.978;2022-09-27T01:51:59;12.40;99.90
17571;DHT22;8903;52.220;20.978;2022-09-27T01:54:31;12.40;99.90
17571;DHT22;8903;52.220;20.978;2022-09-27T01:57:31;12.40;99.90
17571;DHT22;8903;52.220;20.978;2022-09-27T02:00:04;12.40;99.90
17571;DHT22;8903;52.220;20.978;2022-09-27T02:02:45;12.40;99.90
17571;DHT22;8903;52.220;20.978;2022-09-27T02:05:35;12.40;99.90
17571;DHT22;8903;52.220;20.978;2022-09-27T02:08:30;12.30;99.90
17571;DHT22;8903;52.220;20.978;2022-09-27T02:11:06;12.30;99.90
17571;DHT22;8903;52.220;20.978;2022-09-27T02:13:39;12.30;99.90
17571;DHT22;8903;52.220;20.978;2022-09-27T02:16:31;12.30;99.90
17571;DHT22;8903;52.220;20.978;2022-09-27T02:19:06;12.20;99.90
17571;DHT22;8903;52.220;20.978;2022-09-27T02:21:40;12.20;99.90
17571;DHT22;8903;52.220;20.978;2022-09-27T02:24:12;12.20;99.90
17571;DHT22;8903;52.220;20.978;2022-09-27T02:26:44;12.20;99.90
17571;DHT22;8903;52.220;20.978;2022-09-27T02:29:17;12.20;99.90
17571;DHT22;8903;52.220;20.978;2022-09-27T02:31:49;12.10;99.90
17571;DHT22;8903;52.220;20.978;2022-09-27T02:34:21;12.20;99.90
17571;DHT22;8903;52.220;20.978;2022-09-27T02:36:50;12.20;99.90
17571;DHT22;8903;52.220;20.978;2022-09-27T02:39:19;12.20;99.90
17571;DHT22;8903;52.220;20.978;2022-09-27T02:41:52;12.20;99.90
17571;DHT22;8903;52.220;20.978;2022-09-27T02:44:23;12.20;99.90
17571;DHT22;8903;52.220;20.978;2022-09-27T02:47:09;12.20;99.90
17571;DHT22;8903;52.220;20.978;2022-09-27T02:49:50;12.20;99.90
17571;DHT22;8903;52.220;20.978;2022-09-27T02:52:42;12.20;99.90
17571;DHT22;8903;52.220;20.978;2022-09-27T02:55:17;12.10;99.90
17571;DHT22;8903;52.220;20.978;2022-09-27T02:58:00;12.10;99.90
17571;DHT22;8903;52.220;20.978;2022-09-27T03:00:56;12.10;99.90
17571;DHT22;8903;52.220;20.978;2022-09-27T03:03:59;12.10;99.90
17571;DHT22;8903;52.220;20.978;2022-09-27T03:06:31;12.10;99.90
17571;DHT22;8903;52.220;20.978;2022-09-27T03:08:58;12.10;99.90
17571;DHT22;8903;52.220;20.978;2022-09-27T03:11:25;12.10;99.90
17571;DHT22;8903;52.220;20.978;2022-09-27T03:13:52;12.10;99.90
17571;DHT22;8903;52.220;20.978;2022-09-27T03:16:19;12.10;99.90
17571;DHT22;8903;52.220;20.978;2022-09-27T03:19:15;12.10;99.90
17571;DHT22;8903;52.220;20.978;2022-09-27T03:22:02;12.20;99.90
17571;DHT22;8903;52.220;20.978;2022-09-27T03:24:29;12.20;99.90
17571;DHT22;8903;52.220;20.978;2022-09-27T03:26:56;12.20;99.90
17571;DHT22;8903;52.220;20.978;2022-09-27T03:29:23;12.20;99.90
17571;DHT22;8903;52.220;20.978;2022-09-27T03:31:58;12.20;99.90
17571;DHT22;8903;52.220;20.978;2022-09-27T03:34:54;12.20;99.90
17571;DHT22;8903;52.220;20.978;2022-09-27T03:37:23;12.20;99.90
17571;DHT22;8903;52.220;20.978;2022-09-27T03:39:51;12.20;99.90
17571;DHT22;8903;52.220;20.978;2022-09-27T03:42:18;12.20;99.90
17571;DHT22;8903;52.220;20.978;2022-09-27T03:44:49;12.10;99.90
17571;DHT22;8903;52.220;20.978;2022-09-27T03:47:16;12.10;99.90
17571;DHT22;8903;52.220;20.978;2022-09-27T03:49:44;12.10;99.90
17571;DHT22;8903;52.220;20.978;2022-09-27T03:52:11;12.00;99.90
17571;DHT22;8903;52.220;20.978;2022-09-27T03:54:39;12.00;99.90
17571;DHT22;8903;52.220;20.978;2022-09-27T03:57:06;12.00;99.90
17571;DHT22;8903;52.220;20.978;2022-09-27T03:59:33;12.00;99.90
17571;DHT22;8903;52.220;20.978;2022-09-27T04:02:29;12.00;99.90
17571;DHT22;8903;52.220;20.978;2022-09-27T04:05:15;12.00;99.90
17571;DHT22;8903;52.220;20.978;2022-09-27T04:07:45;11.90;99.90
17571;DHT22;8903;52.220;20.978;2022-09-27T04:10:16;12.00;99.90
17571;DHT22;8903;52.220;20.978;2022-09-27T04:12:43;11.90;99.90
17571;DHT22;8903;52.220;20.978;2022-09-27T04:15:11;12.00;99.90
17571;DHT22;8903;52.220;20.978;2022-09-27T04:17:50;12.00;99.90
17571;DHT22;8903;52.220;20.978;2022-09-27T04:20:43;11.90;99.90
17571;DHT22;8903;52.220;20.978;2022-09-27T04:23:12;11.90;99.90
17571;DHT22;8903;52.220;20.978;2022-09-27T04:25:48;11.90;99.90
17571;DHT22;8903;52.220;20.978;2022-09-27T04:28:20;11.90;99.90
17571;DHT22;8903;52.220;20.978;2022-09-27T04:30:48;11.90;99.90
17571;DHT22;8903;52.220;20.978;2022-09-27T04:33:47;11.90;99.90
17571;DHT22;8903;52.220;20.978;2022-09-27T04:36:20;11.90;99.90
17571;DHT22;8903;52.220;20.978;2022-09-27T04:39:07;11.90;99.90
17571;DHT22;8903;52.220;20.978;2022-09-27T04:41:38;11.90;99.90
17571;DHT22;8903;52.220;20.978;2022-09-27T04:44:05;12.00;99.90
17571;DHT22;8903;52.220;20.978;2022-09-27T04:46:32;12.00;99.90
17571;DHT22;8903;52.220;20.978;2022-09-27T04:49:01;12.00;99.90
17571;DHT22;8903;52.220;20.978;2022-09-27T04:51:29;12.00;99.90
17571;DHT22;8903;52.220;20.978;2022-09-27T04:53:56;12.10;99.90
17571;DHT22;8903;52.220;20.978;2022-09-27T04:56:33;12.10;99.90
17571;DHT22;8903;52.220;20.978;2022-09-27T04:59:03;12.10;99.90
17571;DHT22;8903;52.220;20.978;2022-09-27T05:01:30;12.10;99.90
17571;DHT22;8903;52.220;20.978;2022-09-27T05:03:57;12.10;99.90
17571;DHT22;8903;52.220;20.978;2022-09-27T05:06:26;12.10;99.90
17571;DHT22;8903;52.220;20.978;2022-09-27T05:08:57;12.10;99.90
17571;DHT22;8903;52.220;20.978;2022-09-27T05:11:26;12.10;99.90
17571;DHT22;8903;52.220;20.978;2022-09-27T05:14:13;12.10;99.90
17571;DHT22;8903;52.220;20.978;2022-09-27T05:17:00;12.10;99.90
17571;DHT22;8903;52.220;20.978;2022-09-27T05:19:53;12.10;99.90
17571;DHT22;8903;52.220;20.978;2022-09-27T05:22:31;12.10;99.90
17571;DHT22;8903;52.220;20.978;2022-09-27T05:24:58;12.10;99.90
17571;DHT22;8903;52.220;20.978;2022-09-27T05:27:25;12.10;99.90
17571;DHT22;8903;52.220;20.978;2022-09-27T05:29:53;12.10;99.90
17571;DHT22;8903;52.220;20.978;2022-09-27T05:32:25;12.10;99.90
17571;DHT22;8903;52.220;20.978;2022-09-27T05:35:21;12.20;99.90
17571;DHT22;8903;52.220;20.978;2022-09-27T05:37:52;12.20;99.90
17571;DHT22;8903;52.220;20.978;2022-09-27T05:40:19;12.20;99.90
17571;DHT22;8903;52.220;20.978;2022-09-27T05:42:50;12.10;99.90
17571;DHT22;8903;52.220;20.978;2022-09-27T05:45:20;12.10;99.90
17571;DHT22;8903;52.220;20.978;2022-09-27T05:47:55;12.20;99.90
17571;DHT22;8903;52.220;20.978;2022-09-27T05:50:22;12.10;99.90
17571;DHT22;8903;52.220;20.978;2022-09-27T05:52:49;12.10;99.90
17571;DHT22;8903;52.220;20.978;2022-09-27T05:55:18;12.20;99.90
17571;DHT22;8903;52.220;20.978;2022-09-27T05:57:56;12.20;99.90
17571;DHT22;8903;52.220;20.978;2022-09-27T06:00:29;12.20;99.90
17571;DHT22;8903;52.220;20.978;2022-09-27T06:02:57;12.20;99.90
17571;DHT22;8903;52.220;20.978;2022-09-27T06:05:43;12.20;99.90
17571;DHT22;8903;52.220;20.978;2022-09-27T06:08:31;12.10;99.90
17571;DHT22;8903;52.220;20.978;2022-09-27T06:11:00;12.10;99.90
17571;DHT22;8903;52.220;20.978;2022-09-27T06:13:29;12.00;99.90
17571;DHT22;8903;52.220;20.978;2022-09-27T06:15:57;12.00;99.90
17571;DHT22;8903;52.220;20.978;2022-09-27T06:18:24;12.00;99.90
17571;DHT22;8903;52.220;20.978;2022-09-27T06:20:52;12.00;99.90
17571;DHT22;8903;52.220;20.978;2022-09-27T06:23:20;12.00;99.90
17571;DHT22;8903;52.220;20.978;2022-09-27T06:25:49;12.10;99.90
17571;DHT22;8903;52.220;20.978;2022-09-27T06:28:34;12.10;99.90
17571;DHT22;8903;52.220;20.978;2022-09-27T06:31:04;12.10;99.90
17571;DHT22;8903;52.220;20.978;2022-09-27T06:33:39;12.20;99.90
17571;DHT22;8903;52.220;20.978;2022-09-27T06:36:07;12.20;99.90
17571;DHT22;8903;52.220;20.978;2022-09-27T06:38:36;12.20;99.90
17571;DHT22;8903;52.220;20.978;2022-09-27T06:41:10;12.30;99.90
17571;DHT22;8903;52.220;20.978;2022-09-27T06:44:16;12.20;99.90
17571;DHT22;8903;52.220;20.978;2022-09-27T06:47:10;12.20;99.90
17571;DHT22;8903;52.220;20.978;2022-09-27T06:50:04;12.10;99.90
17571;DHT22;8903;52.220;20.978;2022-09-27T06:52:32;12.00;99.90
17571;DHT22;8903;52.220;20.978;2022-09-27T06:55:00;12.00;99.90
17571;DHT22;8903;52.220;20.978;2022-09-27T06:57:29;12.00;99.90
17571;DHT22;8903;52.220;20.978;2022-09-27T07:00:15;12.10;99.90
17571;DHT22;8903;52.220;20.978;2022-09-27T07:03:23;12.00;99.90
17571;DHT22;8903;52.220;20.978;2022-09-27T07:06:20;12.00;99.90
17571;DHT22;8903;52.220;20.978;2022-09-27T07:08:54;12.00;99.90
17571;DHT22;8903;52.220;20.978;2022-09-27T07:11:21;12.00;99.90
17571;DHT22;8903;52.220;20.978;2022-09-27T07:13:51;12.10;99.90
17571;DHT22;8903;52.220;20.978;2022-09-27T07:16:18;12.10;99.90
17571;DHT22;8903;52.220;20.978;2022-09-27T07:18:47;12.10;99.90
17571;DHT22;8903;52.220;20.978;2022-09-27T07:21:15;12.10;99.90
17571;DHT22;8903;52.220;20.978;2022-09-27T07:23:42;12.10;99.90
17571;DHT22;8903;52.220;20.978;2022-09-27T07:26:11;12.10;99.90
17571;DHT22;8903;52.220;20.978;2022-09-27T07:28:38;12.00;99.90
17571;DHT22;8903;52.220;20.978;2022-09-27T07:31:08;12.00;99.90
17571;DHT22;8903;52.220;20.978;2022-09-27T07:33:35;12.10;99.90
17571;DHT22;8903;52.220;20.978;2022-09-27T07:36:07;12.20;99.90
17571;DHT22;8903;52.220;20.978;2022-09-27T07:38:38;12.20;99.90
17571;DHT22;8903;52.220;20.978;2022-09-27T07:41:06;12.30;99.90
17571;DHT22;8903;52.220;20.978;2022-09-27T07:43:33;12.40;99.90
17571;DHT22;8903;52.220;20.978;2022-09-27T07:46:00;12.40;99.90
17571;DHT22;8903;52.220;20.978;2022-09-27T07:48:36;12.50;99.90
17571;DHT22;8903;52.220;20.978;2022-09-27T07:51:17;12.50;99.90
17571;DHT22;8903;52.220;20.978;2022-09-27T07:53:50;12.50;99.90
17571;DHT22;8903;52.220;20.978;2022-09-27T07:56:40;12.50;99.90
17571;DHT22;8903;52.220;20.978;2022-09-27T07:59:10;12.60;99.90
17571;DHT22;8903;52.220;20.978;2022-09-27T08:01:38;12.60;99.90
17571;DHT22;8903;52.220;20.978;2022-09-27T08:04:05;12.60;99.90
17571;DHT22;8903;52.220;20.978;2022-09-27T08:06:34;12.70;99.90
17571;DHT22;8903;52.220;20.978;2022-09-27T08:09:00;12.80;99.90
17571;DHT22;8903;52.220;20.978;2022-09-27T08:11:31;12.80;99.90
17571;DHT22;8903;52.220;20.978;2022-09-27T08:14:05;12.90;99.90
17571;DHT22;8903;52.220;20.978;2022-09-27T08:16:33;13.00;99.90
17571;DHT22;8903;52.220;20.978;2022-09-27T08:19:09;13.00;99.90
17571;DHT22;8903;52.220;20.978;2022-09-27T08:21:45;13.00;99.90
17571;DHT22;8903;52.220;20.978;2022-09-27T08:24:20;13.00;99.90
17571;DHT22;8903;52.220;20.978;2022-09-27T08:27:06;13.00;99.90
17571;DHT22;8903;52.220;20.978;2022-09-27T08:30:01;13.10;99.90
17571;DHT22;8903;52.220;20.978;2022-09-27T08:32:29;13.20;99.90
17571;DHT22;8903;52.220;20.978;2022-09-27T08:34:56;13.20;99.90
17571;DHT22;8903;52.220;20.978;2022-09-27T08:37:25;13.10;99.90
17571;DHT22;8903;52.220;20.978;2022-09-27T08:39:52;13.10;99.90
17571;DHT22;8903;52.220;20.978;2022-09-27T08:42:27;13.10;99.90
17571;DHT22;8903;52.220;20.978;2022-09-27T08:45:02;13.20;99.90
17571;DHT22;8903;52.220;20.978;2022-09-27T08:47:35;13.20;99.90
17571;DHT22;8903;52.220;20.978;2022-09-27T08:50:14;13.20;99.90
17571;DHT22;8903;52.220;20.978;2022-09-27T08:52:49;13.20;99.90
17571;DHT22;8903;52.220;20.978;2022-09-27T08:55:21;13.20;99.90
17571;DHT22;8903;52.220;20.978;2022-09-27T08:57:54;13.30;99.90
17571;DHT22;8903;52.220;20.978;2022-09-27T09:00:24;13.40;99.90
17571;DHT22;8903;52.220;20.978;2022-09-27T09:02:51;13.60;99.90
17571;DHT22;8903;52.220;20.978;2022-09-27T09:05:26;13.70;99.90
17571;DHT22;8903;52.220;20.978;2022-09-27T09:10:52;13.80;99.90
17571;DHT22;8903;52.220;20.978;2022-09-27T09:13:49;13.90;99.90
17571;DHT22;8903;52.220;20.978;2022-09-27T09:16:28;14.00;99.90
17571;DHT22;8903;52.220;20.978;2022-09-27T09:19:12;14.00;99.90
17571;DHT22;8903;52.220;20.978;2022-09-27T09:22:26;14.10;99.90
17571;DHT22;8903;52.220;20.978;2022-09-27T09:25:12;14.20;99.90
17571;DHT22;8903;52.220;20.978;2022-09-27T09:27:48;14.20;99.90
17571;DHT22;8903;52.220;20.978;2022-09-27T09:30:20;14.20;99.90
17571;DHT22;8903;52.220;20.978;2022-09-27T09:33:10;14.30;99.90
17571;DHT22;8903;52.220;20.978;2022-09-27T09:35:43;14.40;99.90
17571;DHT22;8903;52.220;20.978;2022-09-27T09:38:14;14.40;99.90
17571;DHT22;8903;52.220;20.978;2022-09-27T09:40:48;14.50;99.90
17571;DHT22;8903;52.220;20.978;2022-09-27T09:43:20;14.40;99.90
17571;DHT22;8903;52.220;20.978;2022-09-27T09:45:56;14.40;99.90
17571;DHT22;8903;52.220;20.978;2022-09-27T09:48:30;14.40;99.90
17571;DHT22;8903;52.220;20.978;2022-09-27T09:50:59;14.50;99.90
17571;DHT22;8903;52.220;20.978;2022-09-27T09:53:35;14.50;99.90
17571;DHT22;8903;52.220;20.978;2022-09-27T09:56:08;14.50;99.90
17571;DHT22;8903;52.220;20.978;2022-09-27T09:58:42;14.60;99.90
17571;DHT22;8903;52.220;20.978;2022-09-27T10:01:18;14.50;99.90
17571;DHT22;8903;52.220;20.978;2022-09-27T10:03:47;14.50;99.90
17571;DHT22;8903;52.220;20.978;2022-09-27T10:06:15;14.40;99.90
17571;DHT22;8903;52.220;20.978;2022-09-27T10:08:45;14.30;99.90
17571;DHT22;8903;52.220;20.978;2022-09-27T10:11:38;14.20;99.90
17571;DHT22;8903;52.220;20.978;2022-09-27T10:14:10;14.20;99.90
17571;DHT22;8903;52.220;20.978;2022-09-27T10:16:38;14.20;99.90
17571;DHT22;8903;52.220;20.978;2022-09-27T10:19:08;14.30;99.90
17571;DHT22;8903;52.220;20.978;2022-09-27T10:21:40;14.30;99.90
17571;DHT22;8903;52.220;20.978;2022-09-27T10:24:09;14.30;99.90
17571;DHT22;8903;52.220;20.978;2022-09-27T10:26:59;14.30;99.90
17571;DHT22;8903;52.220;20.978;2022-09-27T10:29:30;14.20;99.90
17571;DHT22;8903;52.220;20.978;2022-09-27T10:31:58;14.20;99.90
17571;DHT22;8903;52.220;20.978;2022-09-27T10:34:35;14.20;99.90
17571;DHT22;8903;52.220;20.978;2022-09-27T10:37:13;14.30;99.90
17571;DHT22;8903;52.220;20.978;2022-09-27T10:39:52;14.40;99.90
17571;DHT22;8903;52.220;20.978;2022-09-27T10:42:24;14.30;99.90
17571;DHT22;8903;52.220;20.978;2022-09-27T10:44:56;14.20;99.90
17571;DHT22;8903;52.220;20.978;2022-09-27T10:47:38;14.20;99.90
17571;DHT22;8903;52.220;20.978;2022-09-27T10:50:24;14.30;99.90
17571;DHT22;8903;52.220;20.978;2022-09-27T10:53:02;14.20;99.90
17571;DHT22;8903;52.220;20.978;2022-09-27T10:55:32;14.20;99.90
17571;DHT22;8903;52.220;20.978;2022-09-27T10:58:03;14.20;99.90
17571;DHT22;8903;52.220;20.978;2022-09-27T11:00:31;14.20;99.90
17571;DHT22;8903;52.220;20.978;2022-09-27T11:03:03;14.30;99.90
17571;DHT22;8903;52.220;20.978;2022-09-27T11:05:34;14.30;99.90
17571;DHT22;8903;52.220;20.978;2022-09-27T11:08:20;14.30;99.90
17571;DHT22;8903;52.220;20.978;2022-09-27T11:11:13;14.20;99.90
17571;DHT22;8903;52.220;20.978;2022-09-27T11:13:57;14.30;99.90
17571;DHT22;8903;52.220;20.978;2022-09-27T11:16:37;14.30;99.90
17571;DHT22;8903;52.220;20.978;2022-09-27T11:19:13;14.30;99.90
17571;DHT22;8903;52.220;20.978;2022-09-27T11:21:53;14.30;99.90
17571;DHT22;8903;52.220;20.978;2022-09-27T11:24:54;14.50;99.90
17571;DHT22;8903;52.220;20.978;2022-09-27T11:27:33;14.50;99.90
17571;DHT22;8903;52.220;20.978;2022-09-27T11:30:08;14.40;99.90
17571;DHT22;8903;52.220;20.978;2022-09-27T11:33:15;14.40;99.90
17571;DHT22;8903;52.220;20.978;2022-09-27T11:35:54;14.50;99.90
17571;DHT22;8903;52.220;20.978;2022-09-27T11:38:25;14.60;99.90
17571;DHT22;8903;52.220;20.978;2022-09-27T11:41:18;14.60;99.90
17571;DHT22;8903;52.220;20.978;2022-09-27T11:44:23;14.60;99.90
17571;DHT22;8903;52.220;20.978;2022-09-27T11:46:59;14.50;99.90
17571;DHT22;8903;52.220;20.978;2022-09-27T11:49:54;14.40;99.90
17571;DHT22;8903;52.220;20.978;2022-09-27T11:52:37;14.30;99.90
17571;DHT22;8903;52.220;20.978;2022-09-27T11:55:14;14.30;99.90
17571;DHT22;8903;52.220;20.978;2022-09-27T11:57:49;14.40;99.90
17571;DHT22;8903;52.220;20.978;2022-09-27T12:00:19;14.50;99.90
17571;DHT22;8903;52.220;20.978;2022-09-27T12:03:28;14.60;99.90
17571;DHT22;8903;52.220;20.978;2022-09-27T12:06:06;14.60;99.90
17571;DHT22;8903;52.220;20.978;2022-09-27T12:09:03;14.60;99.90
17571;DHT22;8903;52.220;20.978;2022-09-27T12:11:36;14.70;99.90
17571;DHT22;8903;52.220;20.978;2022-09-27T12:14:09;14.80;99.90
17571;DHT22;8903;52.220;20.978;2022-09-27T12:16:39;14.90;99.90
17571;DHT22;8903;52.220;20.978;2022-09-27T12:19:15;15.00;99.90
17571;DHT22;8903;52.220;20.978;2022-09-27T12:22:01;15.10;99.90
17571;DHT22;8903;52.220;20.978;2022-09-27T12:24:30;15.20;99.90
17571;DHT22;8903;52.220;20.978;2022-09-27T12:27:14;15.30;99.90
17571;DHT22;8903;52.220;20.978;2022-09-27T12:29:44;15.50;99.90
17571;DHT22;8903;52.220;20.978;2022-09-27T12:32:14;15.60;99.90
17571;DHT22;8903;52.220;20.978;2022-09-27T12:34:51;15.60;99.90
17571;DHT22;8903;52.220;20.978;2022-09-27T12:37:23;15.60;99.90
17571;DHT22;8903;52.220;20.978;2022-09-27T12:39:56;15.60;99.90
17571;DHT22;8903;52.220;20.978;2022-09-27T12:42:32;15.60;99.90
17571;DHT22;8903;52.220;20.978;2022-09-27T12:45:10;15.70;99.90
17571;DHT22;8903;52.220;20.978;2022-09-27T12:47:58;15.80;99.90
17571;DHT22;8903;52.220;20.978;2022-09-27T12:50:34;15.90;99.90
17571;DHT22;8903;52.220;20.978;2022-09-27T12:53:04;16.00;99.90
17571;DHT22;8903;52.220;20.978;2022-09-27T12:55:54;16.00;99.90
17571;DHT22;8903;52.220;20.978;2022-09-27T13:01:56;17.00;99.90
17571;DHT22;8903;52.220;20.978;2022-09-27T13:04:41;17.10;99.90
17571;DHT22;8903;52.220;20.978;2022-09-27T13:07:29;16.90;99.90
17571;DHT22;8903;52.220;20.978;2022-09-27T13:10:28;16.80;99.90
17571;DHT22;8903;52.220;20.978;2022-09-27T13:13:00;16.80;99.90
17571;DHT22;8903;52.220;20.978;2022-09-27T13:15:31;16.70;99.90
17571;DHT22;8903;52.220;20.978;2022-09-27T13:18:00;16.70;99.90
17571;DHT22;8903;52.220;20.978;2022-09-27T13:20:45;16.60;99.90
17571;DHT22;8903;52.220;20.978;2022-09-27T13:23:55;16.50;99.90
17571;DHT22;8903;52.220;20.978;2022-09-27T13:26:48;16.50;99.90
17571;DHT22;8903;52.220;20.978;2022-09-27T13:29:28;16.30;99.90
17571;DHT22;8903;52.220;20.978;2022-09-27T13:35:20;16.70;99.90
17571;DHT22;8903;52.220;20.978;2022-09-27T13:38:20;17.00;99.90
17571;DHT22;8903;52.220;20.978;2022-09-27T13:40:50;17.10;99.90
17571;DHT22;8903;52.220;20.978;2022-09-27T13:43:53;17.10;99.90
17571;DHT22;8903;52.220;20.978;2022-09-27T13:46:46;17.20;99.90
17571;DHT22;8903;52.220;20.978;2022-09-27T13:49:18;17.20;99.90
17571;DHT22;8903;52.220;20.978;2022-09-27T13:52:19;17.10;99.90
17571;DHT22;8903;52.220;20.978;2022-09-27T13:55:02;17.40;99.90
17571;DHT22;8903;52.220;20.978;2022-09-27T13:57:45;17.40;99.90
17571;DHT22;8903;52.220;20.978;2022-09-27T14:00:20;17.40;99.90
17571;DHT22;8903;52.220;20.978;2022-09-27T14:02:58;17.20;99.90
17571;DHT22;8903;52.220;20.978;2022-09-27T14:05:31;17.10;99.90
17571;DHT22;8903;52.220;20.978;2022-09-27T14:08:02;17.10;99.90
17571;DHT22;8903;52.220;20.978;2022-09-27T14:10:30;17.20;99.90
17571;DHT22;8903;52.220;20.978;2022-09-27T14:13:03;17.20;99.90
17571;DHT22;8903;52.220;20.978;2022-09-27T14:15:33;17.20;99.90
17571;DHT22;8903;52.220;20.978;2022-09-27T14:18:03;17.10;99.90
17571;DHT22;8903;52.220;20.978;2022-09-27T14:20:35;16.90;99.90
17571;DHT22;8903;52.220;20.978;2022-09-27T14:23:11;16.80;99.90
17571;DHT22;8903;52.220;20.978;2022-09-27T14:25:44;16.70;99.90
17571;DHT22;8903;52.220;20.978;2022-09-27T14:28:22;16.80;99.90
17571;DHT22;8903;52.220;20.978;2022-09-27T14:31:05;16.80;99.90
17571;DHT22;8903;52.220;20.978;2022-09-27T14:33:48;16.80;99.90
17571;DHT22;8903;52.220;20.978;2022-09-27T14:36:24;16.70;99.90
17571;DHT22;8903;52.220;20.978;2022-09-27T14:39:14;16.70;99.90
17571;DHT22;8903;52.220;20.978;2022-09-27T14:41:43;16.40;99.90
17571;DHT22;8903;52.220;20.978;2022-09-27T14:44:16;16.30;99.90
17571;DHT22;8903;52.220;20.978;2022-09-27T14:46:44;16.30;99.90
17571;DHT22;8903;52.220;20.978;2022-09-27T14:49:18;16.20;99.90
17571;DHT22;8903;52.220;20.978;2022-09-27T14:51:55;16.10;99.90
17571;DHT22;8903;52.220;20.978;2022-09-27T14:54:28;16.00;99.90
17571;DHT22;8903;52.220;20.978;2022-09-27T14:56:57;16.00;99.90
17571;DHT22;8903;52.220;20.978;2022-09-27T14:59:28;15.90;99.90
17571;DHT22;8903;52.220;20.978;2022-09-27T15:01:59;15.80;99.90
17571;DHT22;8903;52.220;20.978;2022-09-27T15:04:29;15.70;99.90
17571;DHT22;8903;52.220;20.978;2022-09-27T15:06:57;15.70;99.90
17571;DHT22;8903;52.220;20.978;2022-09-27T15:09:27;15.60;99.90
17571;DHT22;8903;52.220;20.978;2022-09-27T15:11:56;15.60;99.90
17571;DHT22;8903;52.220;20.978;2022-09-27T15:14:27;15.50;99.90
17571;DHT22;8903;52.220;20.978;2022-09-27T15:16:58;15.50;99.90
17571;DHT22;8903;52.220;20.978;2022-09-27T15:19:30;15.40;99.90
17571;DHT22;8903;52.220;20.978;2022-09-27T15:22:22;15.40;99.90
17571;DHT22;8903;52.220;20.978;2022-09-27T15:24:50;15.30;99.90
17571;DHT22;8903;52.220;20.978;2022-09-27T15:27:18;15.30;99.90
17571;DHT22;8903;52.220;20.978;2022-09-27T15:29:49;15.30;99.90
17571;DHT22;8903;52.220;20.978;2022-09-27T15:32:19;15.30;99.90
17571;DHT22;8903;52.220;20.978;2022-09-27T15:34:47;15.30;99.90
17571;DHT22;8903;52.220;20.978;2022-09-27T15:37:25;15.30;99.90
17571;DHT22;8903;52.220;20.978;2022-09-27T15:39:59;15.30;99.90
17571;DHT22;8903;52.220;20.978;2022-09-27T15:42:54;15.30;99.90
17571;DHT22;8903;52.220;20.978;2022-09-27T15:45:28;15.30;99.90
17571;DHT22;8903;52.220;20.978;2022-09-27T15:47:55;15.30;99.90
17571;DHT22;8903;52.220;20.978;2022-09-27T15:50:33;15.20;99.90
17571;DHT22;8903;52.220;20.978;2022-09-27T15:53:01;15.10;99.90
17571;DHT22;8903;52.220;20.978;2022-09-27T15:55:29;15.10;99.90
17571;DHT22;8903;52.220;20.978;2022-09-27T15:57:59;15.10;99.90
17571;DHT22;8903;52.220;20.978;2022-09-27T16:00:29;15.00;99.90
17571;DHT22;8903;52.220;20.978;2022-09-27T16:02:57;15.00;99.90
17571;DHT22;8903;52.220;20.978;2022-09-27T16:05:24;14.90;99.90
17571;DHT22;8903;52.220;20.978;2022-09-27T16:07:54;14.90;99.90
17571;DHT22;8903;52.220;20.978;2022-09-27T16:10:26;14.80;99.90
17571;DHT22;8903;52.220;20.978;2022-09-27T16:15:40;14.70;99.90
17571;DHT22;8903;52.220;20.978;2022-09-27T16:18:08;14.60;99.90
17571;DHT22;8903;52.220;20.978;2022-09-27T16:20:36;14.50;99.90
17571;DHT22;8903;52.220;20.978;2022-09-27T16:23:06;14.40;99.90
17571;DHT22;8903;52.220;20.978;2022-09-27T16:25:33;14.40;99.90
17571;DHT22;8903;52.220;20.978;2022-09-27T16:28:02;14.30;99.90
17571;DHT22;8903;52.220;20.978;2022-09-27T16:30:30;14.30;99.90
17571;DHT22;8903;52.220;20.978;2022-09-27T16:32:59;14.30;99.90
17571;DHT22;8903;52.220;20.978;2022-09-27T16:35:26;14.20;99.90